Bookmark and Share
Track history (hours):
 

Palessa

Last reported at 2014-Mar-28 04:33 UTC. Time now 2014-Apr-16 19:21 UTC.
Position N 01°13' E 103°54'.
Warning: this ship's position is 19 days out of date.

Length 118 m; draft 5 m.

Type: Ship. MMSI: 304255000.

NotesDate/timePositionNaut miles runAvg speedWind from/ knotsBaromVisibWave heightAir tempDewpointWater temp
2014-Mar-28 04:33N 01°13' E 103°54'9 8.7
2014-Mar-28 03:33N 01°16' E 103°46'4 3.8
2014-Mar-28 02:33N 01°18' E 103°43'0 0.0
2014-Mar-28 01:33N 01°18' E 103°43'0 0.0
2014-Mar-28 00:33N 01°18' E 103°43'0 0.0
2014-Mar-27 23:33N 01°18' E 103°43'0 0.0
2014-Mar-27 22:33N 01°18' E 103°43'0 0.0
2014-Mar-27 21:33N 01°18' E 103°43'0 0.0
2014-Mar-27 20:33N 01°18' E 103°43'0 0.0
2014-Mar-27 19:33N 01°18' E 103°43'0 0.0
2014-Mar-27 18:30N 01°18' E 103°43'0 0.0
2014-Mar-27 17:33N 01°18' E 103°43'0 0.0
2014-Mar-27 16:33N 01°18' E 103°43'0 0.1
2014-Mar-27 15:33N 01°18' E 103°43'0 0.1
2014-Mar-27 14:33N 01°18' E 103°43'0 0.0
2014-Mar-27 13:33N 01°18' E 103°43'0 0.0
2014-Mar-27 12:33N 01°18' E 103°43'0 0.0
2014-Mar-27 11:33N 01°18' E 103°43'0 0.0
2014-Mar-27 10:33N 01°18' E 103°43'0 0.0
2014-Mar-27 09:33N 01°18' E 103°43'0 0.0
2014-Mar-27 08:33N 01°18' E 103°43'0 0.0
2014-Mar-27 07:33N 01°18' E 103°43'0 0.0
2014-Mar-27 06:33N 01°18' E 103°43'0 0.0
2014-Mar-27 05:33N 01°18' E 103°43'0 0.0
2014-Mar-27 04:33N 01°18' E 103°43'0 0.0
2014-Mar-27 03:33N 01°18' E 103°43'0 0.0
2014-Mar-27 02:34N 01°18' E 103°43'4 3.8
2014-Mar-27 01:34N 01°16' E 103°46'7 6.3
2014-Mar-27 00:29N 01°15' E 103°39'0 0.0
2014-Mar-26 23:33N 01°15' E 103°39'0 0.0
2014-Mar-26 20:29N 01°15' E 103°39'0 0.0
2014-Mar-26 19:27N 01°15' E 103°39'0 0.0
2014-Mar-26 17:33N 01°15' E 103°39'0 0.0
2014-Mar-26 16:29N 01°15' E 103°39'0 0.0
2014-Mar-26 15:30N 01°15' E 103°39'0 0.0
2014-Mar-26 14:15N 01°15' E 103°39'0 0.0
2014-Mar-26 13:30N 01°15' E 103°39'0 0.0
2014-Mar-26 12:17N 01°15' E 103°39'0 0.1
2014-Mar-26 11:33N 01°15' E 103°39'0 0.1
2014-Mar-26 10:33N 01°15' E 103°39'0 0.0
2014-Mar-26 09:33N 01°15' E 103°39'0 0.1
2014-Mar-26 08:33N 01°15' E 103°39'0 0.1
2014-Mar-26 07:33N 01°15' E 103°39'0 0.0
2014-Mar-26 00:33N 01°15' E 103°39'0 0.0
2014-Mar-25 23:33N 01°15' E 103°39'0 0.0
2014-Mar-25 22:17N 01°15' E 103°39'0 0.0
2014-Mar-25 21:23N 01°15' E 103°39'0 0.0
2014-Mar-25 20:27N 01°15' E 103°39'0 0.0
2014-Mar-25 19:30N 01°15' E 103°39'0 0.0
2014-Mar-25 17:29N 01°15' E 103°39'0 0.0
2014-Mar-25 16:30N 01°15' E 103°39'0 0.0
2014-Mar-25 15:30N 01°15' E 103°39'0 0.0
2014-Mar-25 14:32N 01°15' E 103°39'0 0.0
2014-Mar-25 13:30N 01°15' E 103°39'0 0.0
2014-Mar-25 12:26N 01°15' E 103°39'0 0.0
2014-Mar-25 11:32N 01°15' E 103°39'0 0.0
2014-Mar-25 10:24N 01°15' E 103°39'0 0.0
2014-Mar-25 09:30N 01°15' E 103°39'0 0.1
2014-Mar-25 08:32N 01°15' E 103°39'0 0.1
2014-Mar-25 07:26N 01°15' E 103°39'0 0.0
2014-Mar-25 06:32N 01°15' E 103°39'0 0.1
2014-Mar-25 05:30N 01°15' E 103°39'0 0.0
2014-Mar-25 04:32N 01°15' E 103°39'0 0.0
2014-Mar-25 03:30N 01°15' E 103°39'3 3.5
2014-Mar-25 02:33N 01°11' E 103°40'8 7.6
2014-Mar-25 01:33N 01°10' E 103°48'  

Dump ship's entire track history

sailing weather and tide predictions

Palessa — V2IA7 — position and weather